createdAt,value
2019-05-28T00:01:26.829Z,17.9
2019-05-28T00:11:28.523Z,18.5
2019-05-28T00:21:26.176Z,17.4
2019-05-28T00:31:25.970Z,22.0
2019-05-28T00:41:25.747Z,19.6
2019-05-28T00:51:25.298Z,22.0
2019-05-28T01:01:25.918Z,21.1
2019-05-28T01:11:27.051Z,21.7
2019-05-28T01:21:25.530Z,21.5
2019-05-28T01:31:26.118Z,17.8
2019-05-28T01:41:25.882Z,18.4
2019-05-28T01:51:31.110Z,21.2
2019-05-28T02:01:25.978Z,22.0
2019-05-28T02:11:27.457Z,18.8
2019-05-28T02:21:29.038Z,19.1
2019-05-28T02:31:28.779Z,14.1
2019-05-28T02:41:25.419Z,17.8
2019-05-28T02:51:26.425Z,23.2
2019-05-28T03:01:45.017Z,18.5
2019-05-28T03:11:27.185Z,19.4
2019-05-28T03:21:26.478Z,19.0
2019-05-28T03:31:27.712Z,24.1
2019-05-28T03:41:25.514Z,19.1
2019-05-28T03:51:26.829Z,19.8
2019-05-28T04:01:27.227Z,17.0
2019-05-28T04:11:26.662Z,17.4
2019-05-28T04:21:26.103Z,15.1
2019-05-28T04:31:28.035Z,15.6
2019-05-28T04:41:26.531Z,16.0
2019-05-28T04:51:27.593Z,16.9
2019-05-28T05:01:26.255Z,20.8
2019-05-28T05:11:26.000Z,19.8
2019-05-28T05:21:26.799Z,15.8
2019-05-28T05:31:25.464Z,18.8
2019-05-28T05:41:26.336Z,20.7
2019-05-28T05:51:25.992Z,13.8
2019-05-28T06:01:26.132Z,21.7
2019-05-28T06:11:26.561Z,14.2
2019-05-28T06:21:27.041Z,11.8
2019-05-28T06:31:26.330Z,10.4
2019-05-28T06:41:26.116Z,9.1
2019-05-28T06:51:27.242Z,8.8
2019-05-28T07:01:32.203Z,9.0
2019-05-28T07:11:25.796Z,8.6
2019-05-28T07:21:26.103Z,9.5
2019-05-28T07:31:25.827Z,11.0
2019-05-28T07:41:25.777Z,8.0
2019-05-28T07:51:26.036Z,8.0
2019-05-28T08:01:26.155Z,9.6
2019-05-28T08:11:25.862Z,7.2
2019-05-28T08:21:27.745Z,10.3
2019-05-28T08:31:26.596Z,10.2
2019-05-28T08:41:26.361Z,8.9
2019-05-28T08:51:27.192Z,10.8
2019-05-28T09:01:26.967Z,17.9
2019-05-28T09:11:25.864Z,13.7
2019-05-28T09:21:26.600Z,14.5
2019-05-28T09:31:26.434Z,16.0
2019-05-28T09:41:27.397Z,16.6
2019-05-28T09:51:28.406Z,12.8
2019-05-28T10:01:26.068Z,19.0
2019-05-28T10:11:26.040Z,18.2
2019-05-28T10:21:26.248Z,12.6
2019-05-28T10:31:26.256Z,14.5
2019-05-28T10:41:26.163Z,16.1
2019-05-28T10:51:26.511Z,16.4
2019-05-28T11:01:27.463Z,12.2
2019-05-28T11:11:26.446Z,17.9
2019-05-28T11:21:26.437Z,17.7
2019-05-28T11:31:26.744Z,20.9
2019-05-28T11:41:43.023Z,9.7
2019-05-28T11:51:26.274Z,7.6
2019-05-28T12:01:35.699Z,7.2
2019-05-28T12:11:25.999Z,5.8
2019-05-28T12:21:27.390Z,11.7
2019-05-28T12:31:26.432Z,9.4
2019-05-28T12:41:26.177Z,12.0
2019-05-28T12:51:32.169Z,6.5
2019-05-28T13:01:27.531Z,7.7
2019-05-28T13:11:27.120Z,9.8
2019-05-28T13:21:26.973Z,15.6
2019-05-28T13:31:27.404Z,10.1
2019-05-28T13:41:26.295Z,7.0
2019-05-28T13:51:27.330Z,5.2
2019-05-28T14:01:26.554Z,4.3
2019-05-28T14:11:27.729Z,3.8
2019-05-28T14:21:26.841Z,5.7
2019-05-28T14:31:27.249Z,7.1
2019-05-28T14:41:26.149Z,5.1
2019-05-28T14:51:26.093Z,6.3
2019-05-28T15:01:26.409Z,6.7
2019-05-28T15:11:27.250Z,3.9
2019-05-28T15:21:26.811Z,4.7
2019-05-28T15:31:25.649Z,4.8
2019-05-28T15:41:27.871Z,3.9
2019-05-28T15:51:25.691Z,9.9
2019-05-28T16:01:27.850Z,4.1
2019-05-28T16:11:25.938Z,5.4
2019-05-28T16:21:25.876Z,4.5
2019-05-28T16:31:26.296Z,7.0
2019-05-28T16:41:26.666Z,6.9
2019-05-28T16:51:25.410Z,3.0
2019-05-28T17:01:26.259Z,6.2
2019-05-28T17:11:29.147Z,5.4
2019-05-28T17:21:27.357Z,2.9
2019-05-28T17:31:26.145Z,3.7
2019-05-28T17:41:26.627Z,4.9
2019-05-28T17:51:25.866Z,3.2
2019-05-28T18:01:31.086Z,4.1
2019-05-28T18:11:26.062Z,8.3
2019-05-28T18:21:26.069Z,15.3
2019-05-28T18:31:26.048Z,3.6
2019-05-28T18:41:25.835Z,4.7
2019-05-28T18:51:25.884Z,6.6
2019-05-28T19:01:26.923Z,7.9
2019-05-28T19:11:38.530Z,6.8
2019-05-28T19:21:26.673Z,5.9
2019-05-28T19:31:26.413Z,7.2
2019-05-28T19:41:26.093Z,8.3
2019-05-28T19:51:26.653Z,6.4
2019-05-28T20:01:26.408Z,8.9
2019-05-28T20:11:28.498Z,10.0
2019-05-28T20:21:25.430Z,11.8
2019-05-28T20:31:27.547Z,7.4
2019-05-28T20:41:26.913Z,8.9
2019-05-28T20:51:26.166Z,6.6
2019-05-28T21:01:27.031Z,8.1
2019-05-28T21:11:26.955Z,7.5
2019-05-28T21:21:25.851Z,12.5
2019-05-28T21:31:25.437Z,9.7
2019-05-28T21:41:26.825Z,10.5
2019-05-28T21:51:26.579Z,10.9
2019-05-28T22:01:26.513Z,14.8
2019-05-28T22:11:26.577Z,14.8
2019-05-28T22:21:26.952Z,11.2
2019-05-28T22:31:25.987Z,13.2
2019-05-28T22:41:25.630Z,16.0
2019-05-28T22:51:26.633Z,16.8
2019-05-28T23:01:26.850Z,11.4
2019-05-28T23:11:26.563Z,14.2
2019-05-28T23:21:26.714Z,17.5
2019-05-28T23:31:26.699Z,10.8
2019-05-28T23:41:26.278Z,10.0
2019-05-28T23:51:26.857Z,10.4
